createdAt,value
2018-12-16T00:01:36.941Z,74.09
2018-12-16T00:04:05.225Z,74.41
2018-12-16T00:06:33.555Z,74.22
2018-12-16T00:09:01.889Z,74.74
2018-12-16T00:11:30.183Z,74.32
2018-12-16T00:13:58.429Z,74.55
2018-12-16T00:16:26.753Z,75.04
2018-12-16T00:18:55.142Z,74.81
2018-12-16T00:21:23.495Z,74.56
2018-12-16T00:23:51.769Z,75.04
2018-12-16T00:26:20.015Z,75.07
2018-12-16T00:28:48.312Z,74.69
2018-12-16T00:31:16.664Z,74.74
2018-12-16T00:33:44.937Z,74.04
2018-12-16T00:36:13.197Z,75.10
2018-12-16T00:38:41.451Z,74.46
2018-12-16T00:41:09.714Z,74.41
2018-12-16T00:43:37.940Z,74.59
2018-12-16T00:46:06.218Z,74.98
2018-12-16T00:48:34.896Z,74.32
2018-12-16T00:51:03.158Z,74.60
2018-12-16T00:53:31.517Z,75.36
2018-12-16T00:55:59.736Z,74.98
2018-12-16T00:58:28.014Z,74.85
2018-12-16T01:00:56.313Z,75.08
2018-12-16T01:03:24.583Z,74.54
2018-12-16T01:05:52.916Z,75.95
2018-12-16T01:08:22.036Z,74.90
2018-12-16T01:10:50.336Z,75.70
2018-12-16T01:13:18.557Z,75.37
2018-12-16T01:15:46.797Z,76.30
2018-12-16T01:18:15.100Z,75.60
2018-12-16T01:20:43.657Z,75.81
2018-12-16T01:23:11.998Z,75.70
2018-12-16T01:25:40.213Z,75.88
2018-12-16T01:28:08.529Z,76.07
2018-12-16T01:30:36.819Z,76.05
2018-12-16T01:33:05.043Z,75.63
2018-12-16T01:35:33.282Z,75.59
2018-12-16T01:38:01.608Z,75.67
2018-12-16T01:40:29.928Z,75.95
2018-12-16T01:42:58.330Z,75.93
2018-12-16T01:45:26.590Z,75.87
2018-12-16T01:47:54.980Z,75.74
2018-12-16T01:50:23.308Z,75.61
2018-12-16T01:52:51.656Z,75.66
2018-12-16T01:55:19.908Z,75.53
2018-12-16T01:57:48.225Z,75.60
2018-12-16T02:00:16.530Z,76.07
2018-12-16T02:02:44.987Z,75.94
2018-12-16T02:05:13.352Z,75.65
2018-12-16T02:07:41.662Z,76.50
2018-12-16T02:10:10.774Z,75.54
2018-12-16T02:12:39.112Z,75.79
2018-12-16T02:18:00.828Z,75.05
2018-12-16T02:20:29.146Z,75.72
2018-12-16T02:22:57.555Z,75.25
2018-12-16T02:25:25.782Z,75.53
2018-12-16T02:27:54.040Z,74.93
2018-12-16T02:30:28.509Z,75.67
2018-12-16T02:32:57.015Z,75.51
2018-12-16T02:35:25.329Z,75.59
2018-12-16T02:37:53.601Z,75.39
2018-12-16T02:40:21.862Z,74.67
2018-12-16T02:42:50.295Z,74.71
2018-12-16T02:45:19.417Z,75.21
2018-12-16T02:47:49.201Z,75.07
2018-12-16T02:50:17.467Z,74.65
2018-12-16T02:52:45.723Z,74.81
2018-12-16T02:55:14.019Z,75.14
2018-12-16T02:57:42.264Z,75.26
2018-12-16T03:00:10.749Z,74.81
2018-12-16T03:02:39.088Z,75.73
2018-12-16T03:05:07.418Z,75.17
2018-12-16T03:07:35.686Z,74.52
2018-12-16T03:10:04.277Z,75.01
2018-12-16T03:12:32.593Z,74.99
2018-12-16T03:15:00.915Z,74.94
2018-12-16T03:17:29.187Z,74.88
2018-12-16T03:19:57.413Z,75.72
2018-12-16T03:22:25.630Z,75.37
2018-12-16T03:24:53.891Z,75.15
2018-12-16T03:27:22.215Z,74.89
2018-12-16T03:29:50.464Z,74.93
2018-12-16T03:32:18.810Z,75.27
2018-12-16T03:34:47.191Z,75.28
2018-12-16T03:37:15.434Z,74.31
2018-12-16T03:39:43.689Z,74.77
2018-12-16T03:42:12.130Z,74.72
2018-12-16T03:44:40.446Z,75.42
2018-12-16T03:47:08.698Z,75.11
2018-12-16T03:49:37.040Z,75.00
2018-12-16T03:52:07.276Z,75.97
2018-12-16T03:54:35.815Z,75.74
2018-12-16T03:57:04.282Z,75.39
2018-12-16T03:59:32.514Z,75.13
2018-12-16T04:02:00.761Z,75.50
2018-12-16T04:04:29.098Z,74.75
2018-12-16T04:06:57.299Z,75.31
2018-12-16T04:09:25.590Z,74.88
2018-12-16T04:11:53.972Z,74.58
2018-12-16T04:14:22.223Z,74.30
2018-12-16T04:16:50.471Z,74.92
2018-12-16T04:19:25.167Z,74.19
2018-12-16T04:21:53.513Z,74.19
2018-12-16T04:24:21.784Z,73.81
2018-12-16T04:26:50.035Z,73.92
2018-12-16T04:29:18.283Z,73.61
2018-12-16T04:31:46.595Z,72.93
2018-12-16T04:34:14.830Z,73.74
2018-12-16T04:36:43.058Z,73.41
2018-12-16T04:39:11.298Z,72.99
2018-12-16T04:41:39.508Z,73.19
2018-12-16T04:44:07.736Z,72.86
2018-12-16T04:46:35.981Z,72.55
2018-12-16T04:49:04.285Z,71.92
2018-12-16T04:51:32.521Z,72.46
2018-12-16T04:54:00.847Z,72.25
2018-12-16T04:56:29.164Z,71.90
2018-12-16T04:58:57.409Z,71.93
2018-12-16T05:01:25.630Z,71.78
2018-12-16T05:03:53.942Z,72.08
2018-12-16T05:06:22.153Z,72.25
2018-12-16T05:08:50.383Z,71.46
2018-12-16T05:11:18.617Z,72.21
2018-12-16T05:13:46.856Z,72.25
2018-12-16T05:16:15.111Z,72.33
2018-12-16T05:18:43.389Z,72.54
2018-12-16T05:21:11.642Z,72.39
2018-12-16T05:23:42.020Z,72.46
2018-12-16T05:26:10.156Z,73.09
2018-12-16T05:28:38.495Z,73.20
2018-12-16T05:31:06.711Z,72.63
2018-12-16T05:33:34.958Z,72.90
2018-12-16T05:36:03.176Z,72.15
2018-12-16T05:38:31.515Z,72.81
2018-12-16T05:40:59.732Z,72.27
2018-12-16T05:43:27.954Z,71.93
2018-12-16T05:45:56.396Z,72.23
2018-12-16T05:48:24.636Z,72.06
2018-12-16T05:50:52.844Z,72.01
2018-12-16T05:53:21.088Z,72.11
2018-12-16T05:58:16.650Z,72.20
2018-12-16T06:00:44.946Z,72.22
2018-12-16T06:03:13.165Z,72.14
2018-12-16T06:05:41.384Z,71.78
2018-12-16T06:08:09.616Z,71.76
2018-12-16T06:10:37.882Z,71.45
2018-12-16T06:13:06.121Z,71.72
2018-12-16T06:15:34.373Z,71.00
2018-12-16T06:18:02.665Z,71.47
2018-12-16T06:20:31.065Z,71.74
2018-12-16T06:22:59.294Z,70.70
2018-12-16T06:25:27.508Z,70.78
2018-12-16T06:27:55.748Z,71.29
2018-12-16T06:30:24.718Z,71.24
2018-12-16T06:32:53.004Z,71.59
2018-12-16T06:35:21.356Z,71.11
2018-12-16T06:37:49.629Z,71.04
2018-12-16T06:40:17.881Z,71.04
2018-12-16T06:42:46.125Z,71.23
2018-12-16T06:45:14.491Z,70.87
2018-12-16T06:47:42.799Z,71.37
2018-12-16T06:50:11.009Z,71.45
2018-12-16T06:52:39.445Z,71.29
2018-12-16T06:55:07.747Z,71.35
2018-12-16T06:57:35.995Z,72.21
2018-12-16T07:00:04.889Z,71.47
2018-12-16T07:02:33.161Z,71.77
2018-12-16T07:05:01.512Z,72.14
2018-12-16T07:07:29.774Z,71.86
2018-12-16T07:09:58.023Z,72.04
2018-12-16T07:12:26.340Z,72.56
2018-12-16T07:14:54.637Z,72.25
2018-12-16T07:17:22.877Z,72.15
2018-12-16T07:19:51.221Z,72.51
2018-12-16T07:22:19.491Z,72.54
2018-12-16T07:24:47.841Z,72.42
2018-12-16T07:27:16.222Z,72.30
2018-12-16T07:29:44.585Z,72.39
2018-12-16T07:32:12.924Z,71.94
2018-12-16T07:34:41.400Z,72.57
2018-12-16T07:37:09.757Z,71.96
2018-12-16T07:39:37.992Z,72.09
2018-12-16T07:42:06.428Z,72.29
2018-12-16T07:44:34.920Z,72.60
2018-12-16T07:47:03.386Z,72.00
2018-12-16T07:49:31.623Z,72.15
2018-12-16T07:51:59.826Z,72.79
2018-12-16T07:54:28.128Z,72.14
2018-12-16T07:56:56.390Z,71.43
2018-12-16T07:59:24.703Z,71.97
2018-12-16T08:01:53.048Z,71.42
2018-12-16T08:04:21.264Z,71.80
2018-12-16T08:06:49.509Z,71.81
2018-12-16T08:09:17.810Z,71.99
2018-12-16T08:11:46.164Z,71.43
2018-12-16T08:14:14.449Z,71.47
2018-12-16T08:16:42.673Z,70.93
2018-12-16T08:19:10.963Z,71.32
2018-12-16T08:21:39.549Z,71.17
2018-12-16T08:24:07.845Z,70.65
2018-12-16T08:26:36.117Z,71.14
2018-12-16T08:29:04.469Z,70.60
2018-12-16T08:31:32.817Z,70.53
2018-12-16T08:34:01.080Z,71.05
2018-12-16T08:36:29.335Z,70.32
2018-12-16T08:38:57.586Z,70.49
2018-12-16T08:41:25.841Z,69.45
2018-12-16T08:43:54.160Z,69.84
2018-12-16T08:46:22.448Z,69.58
2018-12-16T08:48:50.678Z,69.43
2018-12-16T08:51:18.894Z,68.71
2018-12-16T08:53:47.133Z,68.48
2018-12-16T08:56:15.518Z,68.40
2018-12-16T08:58:43.781Z,68.64
2018-12-16T09:01:12.014Z,67.42
2018-12-16T09:03:40.362Z,67.14
2018-12-16T09:09:02.422Z,66.67
2018-12-16T09:14:23.589Z,66.81
2018-12-16T09:16:51.872Z,66.37
2018-12-16T09:19:20.200Z,65.98
2018-12-16T09:21:48.566Z,65.35
2018-12-16T09:24:16.821Z,65.76
2018-12-16T09:26:45.137Z,65.23
2018-12-16T09:29:13.455Z,65.50
2018-12-16T09:31:41.762Z,65.18
2018-12-16T09:34:10.301Z,64.97
2018-12-16T09:36:38.876Z,65.79
2018-12-16T09:39:08.217Z,65.07
2018-12-16T09:41:36.593Z,65.22
2018-12-16T09:44:04.964Z,65.61
2018-12-16T09:46:33.392Z,65.35
2018-12-16T09:49:01.761Z,64.58
2018-12-16T09:51:30.097Z,64.48
2018-12-16T09:53:58.358Z,65.17
2018-12-16T09:56:26.653Z,64.32
2018-12-16T09:58:54.926Z,64.13
2018-12-16T10:01:23.194Z,64.18
2018-12-16T10:03:51.457Z,65.10
2018-12-16T10:06:19.742Z,64.68
2018-12-16T10:08:48.271Z,64.89
2018-12-16T10:11:16.577Z,64.66
2018-12-16T10:13:44.829Z,64.59
2018-12-16T10:16:13.088Z,64.25
2018-12-16T10:18:41.312Z,64.15
2018-12-16T10:21:09.685Z,64.09
2018-12-16T10:23:44.823Z,64.24
2018-12-16T10:26:13.111Z,64.56
2018-12-16T10:28:41.393Z,64.03
2018-12-16T10:31:09.652Z,64.42
2018-12-16T10:33:37.977Z,64.44
2018-12-16T10:36:06.447Z,64.05
2018-12-16T10:38:34.719Z,63.89
2018-12-16T10:41:03.044Z,64.02
2018-12-16T10:43:31.451Z,64.03
2018-12-16T10:45:59.873Z,63.98
2018-12-16T10:48:28.164Z,64.20
2018-12-16T10:50:56.447Z,64.46
2018-12-16T10:53:24.852Z,64.51
2018-12-16T10:55:53.216Z,63.49
2018-12-16T10:58:21.475Z,63.82
2018-12-16T11:00:55.213Z,62.91
2018-12-16T11:03:23.733Z,63.57
2018-12-16T11:05:52.022Z,63.29
2018-12-16T11:08:21.181Z,62.82
2018-12-16T11:10:49.436Z,63.59
2018-12-16T11:13:17.699Z,63.02
2018-12-16T11:15:46.034Z,62.94
2018-12-16T11:18:14.305Z,62.97
2018-12-16T11:20:42.560Z,62.75
2018-12-16T11:23:10.806Z,63.49
2018-12-16T11:25:44.119Z,62.70
2018-12-16T11:28:12.335Z,62.55
2018-12-16T11:30:40.622Z,63.27
2018-12-16T11:33:08.926Z,62.81
2018-12-16T11:35:37.712Z,62.63
2018-12-16T11:38:06.389Z,62.49
2018-12-16T11:40:35.168Z,63.25
2018-12-16T11:43:03.692Z,62.99
2018-12-16T11:45:32.386Z,63.47
2018-12-16T11:48:00.891Z,63.46
2018-12-16T11:50:29.206Z,62.89
2018-12-16T11:52:57.473Z,62.64
2018-12-16T11:58:19.035Z,63.18
2018-12-16T12:00:47.744Z,62.54
2018-12-16T12:03:16.186Z,63.08
2018-12-16T12:05:45.326Z,63.18
2018-12-16T12:08:14.853Z,63.19
2018-12-16T12:10:43.927Z,62.57
2018-12-16T12:13:13.167Z,63.10
2018-12-16T12:15:41.781Z,63.47
2018-12-16T12:18:10.191Z,62.63
2018-12-16T12:20:38.612Z,62.29
2018-12-16T12:23:06.945Z,62.27
2018-12-16T12:25:35.810Z,62.88
2018-12-16T12:28:05.223Z,62.69
2018-12-16T12:30:33.897Z,62.27
2018-12-16T12:33:02.316Z,63.47
2018-12-16T12:35:30.856Z,62.79
2018-12-16T12:37:59.381Z,62.33
2018-12-16T12:40:27.728Z,62.24
2018-12-16T12:42:56.150Z,62.84
2018-12-16T12:45:24.608Z,62.15
2018-12-16T12:47:53.322Z,61.90
2018-12-16T12:50:21.684Z,62.41
2018-12-16T12:52:50.041Z,62.79
2018-12-16T12:55:18.327Z,62.75
2018-12-16T12:57:46.629Z,62.48
2018-12-16T13:00:15.664Z,63.55
2018-12-16T13:02:44.274Z,62.76
2018-12-16T13:05:13.108Z,62.47
2018-12-16T13:07:41.391Z,63.05
2018-12-16T13:10:11.745Z,62.73
2018-12-16T13:12:40.602Z,62.93
2018-12-16T13:15:09.096Z,63.03
2018-12-16T13:17:37.356Z,63.23
2018-12-16T13:20:06.228Z,63.11
2018-12-16T13:22:34.671Z,63.45
2018-12-16T13:25:14.471Z,63.76
2018-12-16T13:27:42.718Z,62.90
2018-12-16T13:30:11.128Z,62.70
2018-12-16T13:32:39.373Z,63.66
2018-12-16T13:35:07.713Z,63.32
2018-12-16T13:37:35.967Z,63.47
2018-12-16T13:40:04.510Z,63.14
2018-12-16T13:42:32.825Z,63.62
2018-12-16T13:45:01.078Z,63.18
2018-12-16T13:47:29.315Z,62.89
2018-12-16T13:49:57.619Z,63.41
2018-12-16T13:52:25.923Z,62.94
2018-12-16T13:54:54.213Z,63.36
2018-12-16T13:57:22.512Z,62.83
2018-12-16T13:59:50.750Z,63.15
2018-12-16T14:02:18.991Z,63.44
2018-12-16T14:04:47.417Z,63.53
2018-12-16T14:07:15.774Z,63.76
2018-12-16T14:09:44.069Z,63.84
2018-12-16T14:12:12.588Z,63.85
2018-12-16T14:14:41.111Z,63.96
2018-12-16T14:17:09.483Z,63.90
2018-12-16T14:19:37.921Z,64.23
2018-12-16T14:22:06.320Z,63.33
2018-12-16T14:24:35.290Z,64.11
2018-12-16T14:27:04.638Z,65.06
2018-12-16T14:29:33.350Z,66.36
2018-12-16T14:32:02.125Z,65.75
2018-12-16T14:38:49.575Z,67.11
2018-12-16T14:41:17.916Z,69.51
2018-12-16T14:43:46.253Z,70.12
2018-12-16T14:46:14.545Z,70.62
2018-12-16T14:48:42.846Z,71.11
2018-12-16T14:51:11.212Z,71.41
2018-12-16T14:53:39.680Z,71.74
2018-12-16T14:56:07.981Z,71.40
2018-12-16T14:58:36.457Z,71.65
2018-12-16T15:01:04.800Z,72.31
2018-12-16T15:03:33.968Z,72.01
2018-12-16T15:06:02.404Z,72.42
2018-12-16T15:08:30.756Z,72.13
2018-12-16T15:11:06.239Z,72.30
2018-12-16T15:13:34.712Z,72.49
2018-12-16T15:16:03.015Z,72.53
2018-12-16T15:18:31.429Z,72.34
2018-12-16T15:20:59.687Z,71.91
2018-12-16T15:23:27.974Z,72.09
2018-12-16T15:26:02.029Z,71.94
2018-12-16T15:28:26.585Z,71.75
2018-12-16T15:30:55.903Z,71.37
2018-12-16T15:33:24.969Z,71.33
2018-12-16T15:35:53.471Z,70.97
2018-12-16T15:38:21.867Z,70.86
2018-12-16T15:40:56.371Z,69.59
2018-12-16T15:43:25.020Z,70.24
2018-12-16T15:45:53.504Z,69.95
2018-12-16T15:48:21.834Z,68.55
2018-12-16T15:50:50.157Z,68.93
2018-12-16T15:53:18.635Z,69.16
2018-12-16T15:55:46.945Z,68.69
2018-12-16T15:58:15.195Z,67.79
2018-12-16T16:00:43.513Z,67.67
2018-12-16T16:03:11.905Z,67.85
2018-12-16T16:05:40.404Z,67.70
2018-12-16T16:08:08.675Z,67.38
2018-12-16T16:10:37.165Z,66.96
2018-12-16T16:13:05.475Z,66.69
2018-12-16T16:15:33.784Z,67.14
2018-12-16T16:18:02.144Z,67.31
2018-12-16T16:20:30.511Z,67.33
2018-12-16T16:22:58.826Z,67.47
2018-12-16T16:25:27.098Z,68.76
2018-12-16T16:27:55.368Z,67.83
2018-12-16T16:30:23.664Z,67.36
2018-12-16T16:32:52.000Z,67.44
2018-12-16T16:35:20.258Z,67.92
2018-12-16T16:37:49.067Z,67.42
2018-12-16T16:40:17.804Z,67.69
2018-12-16T16:42:46.196Z,67.75
2018-12-16T16:45:21.244Z,68.00
2018-12-16T16:47:49.593Z,68.08
2018-12-16T16:50:17.975Z,68.24
2018-12-16T16:52:46.222Z,68.26
2018-12-16T16:55:14.640Z,68.33
2018-12-16T16:57:43.105Z,68.31
2018-12-16T17:00:11.580Z,68.06
2018-12-16T17:02:39.871Z,68.38
2018-12-16T17:05:08.195Z,68.28
2018-12-16T17:07:36.495Z,68.90
2018-12-16T17:10:05.916Z,68.82
2018-12-16T17:12:34.322Z,68.40
2018-12-16T17:15:02.983Z,68.42
2018-12-16T17:20:24.565Z,69.33
2018-12-16T17:25:48.383Z,69.35
2018-12-16T17:28:15.910Z,69.91
2018-12-16T17:30:44.231Z,71.02
2018-12-16T17:33:12.514Z,70.87
2018-12-16T17:35:40.847Z,71.50
2018-12-16T17:38:09.174Z,71.12
2018-12-16T17:40:37.492Z,71.81
2018-12-16T17:43:05.964Z,71.86
2018-12-16T17:45:34.235Z,72.92
2018-12-16T17:50:55.625Z,73.30
2018-12-16T17:56:16.830Z,74.31
2018-12-16T17:58:45.127Z,74.88
2018-12-16T18:01:13.424Z,74.45
2018-12-16T18:03:42.131Z,75.07
2018-12-16T18:06:10.538Z,74.79
2018-12-16T18:08:38.828Z,74.50
2018-12-16T18:11:07.143Z,74.93
2018-12-16T18:13:35.447Z,75.36
2018-12-16T18:16:03.729Z,75.84
2018-12-16T18:18:32.082Z,75.96
2018-12-16T18:21:00.336Z,76.32
2018-12-16T18:23:29.827Z,76.48
2018-12-16T18:25:58.455Z,76.21
2018-12-16T18:28:26.926Z,75.87
2018-12-16T18:30:55.324Z,76.27
2018-12-16T18:33:27.273Z,76.73
2018-12-16T18:35:55.592Z,76.69
2018-12-16T18:38:23.947Z,76.71
2018-12-16T18:40:52.227Z,76.40
2018-12-16T18:43:20.581Z,76.83
2018-12-16T18:45:48.856Z,76.64
2018-12-16T18:48:17.151Z,76.73
2018-12-16T18:50:46.218Z,76.71
2018-12-16T18:53:14.448Z,76.88
2018-12-16T18:55:42.735Z,76.69
2018-12-16T18:58:11.015Z,76.69
2018-12-16T19:00:39.434Z,76.32
2018-12-16T19:03:07.780Z,76.11
2018-12-16T19:05:36.263Z,75.86
2018-12-16T19:08:04.753Z,76.26
2018-12-16T19:10:34.397Z,76.44
2018-12-16T19:15:35.963Z,76.39
2018-12-16T19:18:04.824Z,76.41
2018-12-16T19:20:33.491Z,76.04
2018-12-16T19:23:01.760Z,75.86
2018-12-16T19:25:30.127Z,75.67
2018-12-16T19:27:58.487Z,75.34
2018-12-16T19:30:26.881Z,76.01
2018-12-16T19:32:55.162Z,76.36
2018-12-16T19:35:23.537Z,76.49
2018-12-16T19:37:51.898Z,75.47
2018-12-16T19:40:20.239Z,75.81
2018-12-16T19:42:49.170Z,76.05
2018-12-16T19:45:17.598Z,75.84
2018-12-16T19:47:49.567Z,76.17
2018-12-16T19:50:16.392Z,76.54
2018-12-16T19:52:44.659Z,76.41
2018-12-16T19:58:05.700Z,75.66
2018-12-16T20:00:34.065Z,76.32
2018-12-16T20:03:02.561Z,75.56
2018-12-16T20:05:32.959Z,75.96
2018-12-16T20:08:01.324Z,77.09
2018-12-16T20:10:29.570Z,77.49
2018-12-16T20:12:57.896Z,77.94
2018-12-16T20:15:26.254Z,78.35
2018-12-16T20:17:54.946Z,78.72
2018-12-16T20:20:23.243Z,78.59
2018-12-16T20:22:51.934Z,78.66
2018-12-16T20:25:20.313Z,78.99
2018-12-16T20:27:48.635Z,78.67
2018-12-16T20:30:17.070Z,79.60
2018-12-16T20:32:45.368Z,79.19
2018-12-16T20:35:14.020Z,79.23
2018-12-16T20:37:43.055Z,80.00
2018-12-16T20:40:11.504Z,78.91
2018-12-16T20:42:39.933Z,79.15
2018-12-16T20:45:08.379Z,79.71
2018-12-16T20:47:36.911Z,79.59
2018-12-16T20:50:06.800Z,79.67
2018-12-16T20:52:35.407Z,79.10
2018-12-16T20:55:05.769Z,79.50
2018-12-16T20:57:34.365Z,79.73
2018-12-16T21:00:02.841Z,79.55
2018-12-16T21:02:34.515Z,79.22
2018-12-16T21:05:03.115Z,79.32
2018-12-16T21:07:32.092Z,79.87
2018-12-16T21:10:01.052Z,79.72
2018-12-16T21:12:35.107Z,80.09
2018-12-16T21:15:08.997Z,79.37
2018-12-16T21:17:43.012Z,80.06
2018-12-16T21:20:11.765Z,79.67
2018-12-16T21:22:40.208Z,79.73
2018-12-16T21:25:08.679Z,80.26
2018-12-16T21:27:37.450Z,80.17
2018-12-16T21:30:06.719Z,80.06
2018-12-16T21:32:35.126Z,80.72
2018-12-16T21:35:03.728Z,80.35
2018-12-16T21:37:33.217Z,80.09
2018-12-16T21:40:01.730Z,80.19
2018-12-16T21:42:30.394Z,80.78
2018-12-16T21:44:58.796Z,79.87
2018-12-16T21:47:27.105Z,80.38
2018-12-16T21:49:55.418Z,80.60
2018-12-16T21:52:23.707Z,80.28
2018-12-16T21:54:52.184Z,80.70
2018-12-16T21:57:20.495Z,81.21
2018-12-16T21:59:49.403Z,80.73
2018-12-16T22:02:17.879Z,80.83
2018-12-16T22:04:46.315Z,80.60
2018-12-16T22:07:14.760Z,80.04
2018-12-16T22:09:43.190Z,81.03
2018-12-16T22:12:11.601Z,79.99
2018-12-16T22:14:40.000Z,79.85
2018-12-16T22:17:08.422Z,79.70
2018-12-16T22:19:36.790Z,79.92
2018-12-16T22:22:05.709Z,79.35
2018-12-16T22:24:34.119Z,80.20
2018-12-16T22:27:02.515Z,80.10
2018-12-16T22:29:30.812Z,79.61
2018-12-16T22:31:59.616Z,79.31
2018-12-16T22:34:28.810Z,80.27
2018-12-16T22:36:57.155Z,80.22
2018-12-16T22:39:25.623Z,80.45
2018-12-16T22:41:54.794Z,80.06
2018-12-16T22:44:23.075Z,80.82
2018-12-16T22:46:52.372Z,80.39
2018-12-16T22:49:20.797Z,80.79
2018-12-16T22:51:49.184Z,79.91
2018-12-16T22:54:17.576Z,80.55
2018-12-16T22:56:45.995Z,80.34
2018-12-16T22:59:14.314Z,80.05
2018-12-16T23:01:42.756Z,80.06
2018-12-16T23:04:11.440Z,80.54
2018-12-16T23:06:39.769Z,80.56
2018-12-16T23:09:08.380Z,81.02
2018-12-16T23:11:36.696Z,81.07
2018-12-16T23:14:05.322Z,80.13
2018-12-16T23:16:33.619Z,80.20
2018-12-16T23:19:02.023Z,80.13
2018-12-16T23:21:30.253Z,80.46
2018-12-16T23:23:58.517Z,80.92
2018-12-16T23:26:26.913Z,81.10
2018-12-16T23:28:55.197Z,80.56
2018-12-16T23:31:23.556Z,80.74
2018-12-16T23:33:51.840Z,81.06
2018-12-16T23:36:20.085Z,80.60
2018-12-16T23:38:48.393Z,80.56
2018-12-16T23:41:16.692Z,80.56
2018-12-16T23:43:44.985Z,81.09
2018-12-16T23:46:13.273Z,80.98
2018-12-16T23:48:41.497Z,80.43
2018-12-16T23:51:09.813Z,81.08
2018-12-16T23:53:38.097Z,80.65
2018-12-16T23:56:06.510Z,80.92
2018-12-16T23:58:34.832Z,81.01
